Marston, Missouri
Current Conditions -  °F | °C
As of 1:15 PM on Thursday 30 Oct 2014 (Local Time) from KUCY Reporting Station
Clear Clear  
Wind Chill: 61°   Ceiling: Unl
Heat Index: 61°   Visibility: 10mi
Dew Point: 39°   Wind: 3mph
Humidity: 45%   Direction: NA
Pressure: 30.11"   Gusts: NA
Location:  36.52°N, 89.61°W
Report Text: KUCY 301815Z AUTO VRB03KT 10SM CLR 16/04 A3011 RMK
Loading
Personal Weather Stations






























Interactive Weather Map New forecast layout! Learn more

10-Day Weather Forecast

Advertisements
Track Severe Weather on mobile